createdAt,value
2023-03-26T00:01:12.740Z,37.78
2023-03-26T00:03:39.243Z,37.72
2023-03-26T00:06:05.603Z,37.69
2023-03-26T00:08:31.951Z,37.72
2023-03-26T00:10:59.538Z,37.81
2023-03-26T00:13:27.276Z,37.85
2023-03-26T00:15:53.804Z,37.75
2023-03-26T00:18:20.294Z,37.78
2023-03-26T00:20:46.609Z,37.59
2023-03-26T00:23:12.933Z,37.94
2023-03-26T00:25:39.311Z,37.69
2023-03-26T00:28:05.658Z,37.84
2023-03-26T00:30:32.033Z,38.18
2023-03-26T00:32:58.412Z,38.04
2023-03-26T00:35:24.745Z,38.00
2023-03-26T00:37:51.176Z,38.02
2023-03-26T00:40:17.614Z,38.04
2023-03-26T00:42:43.925Z,38.15
2023-03-26T00:45:10.265Z,38.20
2023-03-26T00:47:36.663Z,37.79
2023-03-26T00:50:03.249Z,38.07
2023-03-26T00:52:29.586Z,38.17
2023-03-26T00:54:55.951Z,38.11
2023-03-26T00:57:34.466Z,38.17
2023-03-26T01:00:02.189Z,38.16
2023-03-26T01:02:28.603Z,38.26
2023-03-26T01:04:55.022Z,38.15
2023-03-26T01:07:21.542Z,38.39
2023-03-26T01:09:47.888Z,38.37
2023-03-26T01:12:14.220Z,38.21
2023-03-26T01:14:40.800Z,38.32
2023-03-26T01:17:07.259Z,38.48
2023-03-26T01:19:33.656Z,38.36
2023-03-26T01:22:00.040Z,38.40
2023-03-26T01:24:26.397Z,38.44
2023-03-26T01:26:52.802Z,38.30
2023-03-26T01:29:19.198Z,38.58
2023-03-26T01:31:45.523Z,38.41
2023-03-26T01:34:12.123Z,38.45
2023-03-26T01:36:38.474Z,38.33
2023-03-26T01:39:04.792Z,38.64
2023-03-26T01:41:31.121Z,38.58
2023-03-26T01:43:57.484Z,38.58
2023-03-26T01:46:23.838Z,38.46
2023-03-26T01:48:50.182Z,38.69
2023-03-26T01:51:16.576Z,38.77
2023-03-26T01:53:42.897Z,38.81
2023-03-26T01:56:09.253Z,38.84
2023-03-26T01:58:35.633Z,38.88
2023-03-26T02:01:01.996Z,38.48
2023-03-26T02:03:28.472Z,38.89
2023-03-26T02:05:55.210Z,38.79
2023-03-26T02:08:21.709Z,39.04
2023-03-26T02:10:48.494Z,38.78
2023-03-26T02:13:14.875Z,38.85
2023-03-26T02:15:41.224Z,38.87
2023-03-26T02:18:07.555Z,39.02
2023-03-26T02:20:34.131Z,38.75
2023-03-26T02:23:00.592Z,38.88
2023-03-26T02:25:27.977Z,39.01
2023-03-26T02:27:56.895Z,38.79
2023-03-26T02:30:23.350Z,39.03
2023-03-26T02:32:50.238Z,39.09
2023-03-26T02:35:16.839Z,38.89
2023-03-26T02:37:43.196Z,39.03
2023-03-26T02:40:14.806Z,39.03
2023-03-26T02:42:43.168Z,39.18
2023-03-26T02:45:09.704Z,38.86
2023-03-26T02:48:14.459Z,38.87
2023-03-26T02:50:50.510Z,39.07
2023-03-26T02:53:28.621Z,39.23
2023-03-26T02:56:08.226Z,39.16
2023-03-26T02:58:42.054Z,39.08
2023-03-26T03:01:08.564Z,39.30
2023-03-26T03:03:42.767Z,39.18
2023-03-26T03:06:26.812Z,39.26
2023-03-26T03:08:57.219Z,39.36
2023-03-26T03:11:35.657Z,39.29
2023-03-26T03:14:02.048Z,39.41
2023-03-26T03:16:29.757Z,39.42
2023-03-26T03:18:58.790Z,39.24
2023-03-26T03:21:34.277Z,39.28
2023-03-26T03:24:00.741Z,39.11
2023-03-26T03:26:30.714Z,39.36
2023-03-26T03:29:02.549Z,39.31
2023-03-26T03:31:29.186Z,39.30
2023-03-26T03:34:01.913Z,39.38
2023-03-26T03:36:31.308Z,39.40
2023-03-26T03:39:04.370Z,39.31
2023-03-26T03:41:31.512Z,39.33
2023-03-26T03:44:00.638Z,39.48
2023-03-26T03:46:29.562Z,39.36
2023-03-26T03:48:56.016Z,39.31
2023-03-26T03:51:30.167Z,39.34
2023-03-26T03:53:59.101Z,39.26
2023-03-26T03:56:54.409Z,39.51
2023-03-26T03:59:37.328Z,39.25
2023-03-26T04:02:06.833Z,39.49
2023-03-26T04:04:40.078Z,39.26
2023-03-26T04:07:10.307Z,39.66
2023-03-26T04:09:56.675Z,39.33
2023-03-26T04:12:24.835Z,39.51
2023-03-26T04:15:00.560Z,39.45
2023-03-26T04:17:27.043Z,39.27
2023-03-26T04:19:55.340Z,39.72
2023-03-26T04:22:25.733Z,39.59
2023-03-26T04:24:55.970Z,39.67
2023-03-26T04:27:28.521Z,39.44
2023-03-26T04:30:03.059Z,39.49
2023-03-26T04:32:30.415Z,39.47
2023-03-26T04:34:56.967Z,39.48
2023-03-26T04:37:24.981Z,39.62
2023-03-26T04:40:00.486Z,39.42
2023-03-26T04:42:49.563Z,39.64
2023-03-26T04:45:29.666Z,39.64
2023-03-26T04:47:56.270Z,39.69
2023-03-26T04:50:22.771Z,39.65
2023-03-26T04:52:49.425Z,39.38
2023-03-26T04:55:35.696Z,39.82
2023-03-26T04:58:09.364Z,39.83
2023-03-26T05:00:54.589Z,39.77
2023-03-26T05:03:21.251Z,39.62
2023-03-26T05:05:48.662Z,39.56
2023-03-26T05:08:15.937Z,39.42
2023-03-26T05:10:42.526Z,39.76
2023-03-26T05:13:13.530Z,39.55
2023-03-26T05:15:45.749Z,39.92
2023-03-26T05:18:18.535Z,39.82
2023-03-26T05:20:50.764Z,39.56
2023-03-26T05:23:17.515Z,39.79
2023-03-26T05:25:49.812Z,39.58
2023-03-26T05:28:19.672Z,39.77
2023-03-26T05:31:06.247Z,39.54
2023-03-26T05:33:36.327Z,39.71
2023-03-26T05:36:07.156Z,39.92
2023-03-26T05:38:33.594Z,39.83
2023-03-26T05:41:01.644Z,39.95
2023-03-26T05:43:28.454Z,39.80
2023-03-26T05:46:12.535Z,39.78
2023-03-26T05:48:38.988Z,40.11
2023-03-26T05:51:05.702Z,40.06
2023-03-26T05:53:32.728Z,39.81
2023-03-26T05:56:31.405Z,40.09
2023-03-26T05:59:29.759Z,39.81
2023-03-26T06:02:15.133Z,40.06
2023-03-26T06:05:00.081Z,39.92
2023-03-26T06:07:26.499Z,39.99
2023-03-26T06:10:07.804Z,40.16
2023-03-26T06:12:34.232Z,40.17
2023-03-26T06:15:00.570Z,39.93
2023-03-26T06:17:39.838Z,40.12
2023-03-26T06:20:26.443Z,39.98
2023-03-26T06:22:54.144Z,39.89
2023-03-26T06:25:38.944Z,40.10
2023-03-26T06:28:20.898Z,40.17
2023-03-26T06:31:10.322Z,40.15
2023-03-26T06:33:41.862Z,40.12
2023-03-26T06:36:10.050Z,40.38
2023-03-26T06:38:37.204Z,40.02
2023-03-26T06:41:05.636Z,40.46
2023-03-26T06:43:52.212Z,40.32
2023-03-26T06:46:37.233Z,40.07
2023-03-26T06:49:22.069Z,40.16
2023-03-26T06:52:08.763Z,40.43
2023-03-26T06:55:01.205Z,40.01
2023-03-26T06:57:53.920Z,40.33
2023-03-26T07:00:43.712Z,40.08
2023-03-26T07:03:28.630Z,40.05
2023-03-26T07:06:18.029Z,40.10
2023-03-26T07:09:03.257Z,40.13
2023-03-26T07:11:48.108Z,40.38
2023-03-26T07:14:34.520Z,40.37
2023-03-26T07:17:10.481Z,40.52
2023-03-26T07:19:59.691Z,40.43
2023-03-26T07:22:26.255Z,40.30
2023-03-26T07:25:31.404Z,40.58
2023-03-26T07:28:06.777Z,40.23
2023-03-26T07:31:08.249Z,40.56
2023-03-26T07:33:39.449Z,40.62
2023-03-26T07:36:20.797Z,40.60
2023-03-26T07:39:03.605Z,40.47
2023-03-26T07:41:56.480Z,40.27
2023-03-26T07:45:01.140Z,40.52
2023-03-26T07:47:39.323Z,40.35
2023-03-26T07:50:23.927Z,39.97
2023-03-26T07:53:07.989Z,40.61
2023-03-26T07:55:52.205Z,40.33
2023-03-26T07:58:36.671Z,40.64
2023-03-26T08:01:31.839Z,40.66
2023-03-26T08:03:58.670Z,40.60
2023-03-26T08:07:08.760Z,40.34
2023-03-26T08:09:55.134Z,40.68
2023-03-26T08:12:32.968Z,40.59
2023-03-26T08:14:59.461Z,40.25
2023-03-26T08:17:25.791Z,40.49
2023-03-26T08:19:52.146Z,40.63
2023-03-26T08:22:18.590Z,40.51
2023-03-26T08:24:44.884Z,40.33
2023-03-26T08:27:11.203Z,40.44
2023-03-26T08:29:37.551Z,40.23
2023-03-26T08:32:03.891Z,40.53
2023-03-26T08:34:30.201Z,40.32
2023-03-26T08:36:56.597Z,40.29
2023-03-26T08:39:22.958Z,40.40
2023-03-26T08:41:49.306Z,40.40
2023-03-26T08:44:15.691Z,40.53
2023-03-26T08:46:43.285Z,40.31
2023-03-26T08:49:09.628Z,40.34
2023-03-26T08:51:35.986Z,40.40
2023-03-26T08:54:02.304Z,40.27
2023-03-26T08:56:28.663Z,40.27
2023-03-26T08:58:57.141Z,40.24
2023-03-26T09:01:23.472Z,40.61
2023-03-26T09:03:49.874Z,40.65
2023-03-26T09:06:17.757Z,40.34
2023-03-26T09:08:54.073Z,40.40
2023-03-26T09:11:21.129Z,40.43
2023-03-26T09:13:47.514Z,40.36
2023-03-26T09:16:13.832Z,40.57
2023-03-26T09:18:41.521Z,40.46
2023-03-26T09:21:07.846Z,40.18
2023-03-26T09:23:34.162Z,40.17
2023-03-26T09:26:00.516Z,40.00
2023-03-26T09:28:26.864Z,40.32
2023-03-26T09:30:53.499Z,39.99
2023-03-26T09:33:20.149Z,39.81
2023-03-26T09:35:46.485Z,39.77
2023-03-26T09:38:12.832Z,39.85
2023-03-26T09:40:39.210Z,39.73
2023-03-26T09:43:05.527Z,39.74
2023-03-26T09:45:31.994Z,39.68
2023-03-26T09:47:58.456Z,39.57
2023-03-26T09:50:24.813Z,39.80
2023-03-26T09:52:51.136Z,39.42
2023-03-26T09:55:17.514Z,39.61
2023-03-26T09:57:43.860Z,39.53
2023-03-26T10:00:10.185Z,39.37
2023-03-26T10:02:46.180Z,39.38
2023-03-26T10:05:13.815Z,39.33
2023-03-26T10:07:40.182Z,39.02
2023-03-26T10:10:06.491Z,39.07
2023-03-26T10:12:32.879Z,39.05
2023-03-26T10:14:59.232Z,39.11
2023-03-26T10:17:25.663Z,38.90
2023-03-26T10:19:52.173Z,38.84
2023-03-26T10:22:19.146Z,38.63
2023-03-26T10:24:45.487Z,38.96
2023-03-26T10:27:11.800Z,38.91
2023-03-26T10:29:38.169Z,38.72
2023-03-26T10:32:04.477Z,38.57
2023-03-26T10:34:30.787Z,38.56
2023-03-26T10:36:57.196Z,38.31
2023-03-26T10:39:37.967Z,38.28
2023-03-26T10:42:05.738Z,38.21
2023-03-26T10:44:32.077Z,38.11
2023-03-26T10:46:58.417Z,38.24
2023-03-26T10:49:24.797Z,38.43
2023-03-26T10:51:51.128Z,38.06
2023-03-26T10:54:19.237Z,37.93
2023-03-26T10:56:45.645Z,37.81
2023-03-26T10:59:11.966Z,37.85
2023-03-26T11:01:38.327Z,37.96
2023-03-26T11:04:04.726Z,37.79
2023-03-26T11:06:31.045Z,37.78
2023-03-26T11:08:57.407Z,37.74
2023-03-26T11:11:23.780Z,37.58
2023-03-26T11:13:50.110Z,37.83
2023-03-26T11:16:16.527Z,37.55
2023-03-26T11:18:43.051Z,37.38
2023-03-26T11:21:19.717Z,37.35
2023-03-26T11:23:46.946Z,37.30
2023-03-26T11:26:13.304Z,37.52
2023-03-26T11:28:41.635Z,37.33
2023-03-26T11:31:28.836Z,37.08
2023-03-26T11:33:55.997Z,36.88
2023-03-26T11:36:22.409Z,36.82
2023-03-26T11:38:48.821Z,36.61
2023-03-26T11:41:22.851Z,36.92
2023-03-26T11:43:59.555Z,36.49
2023-03-26T11:46:29.224Z,36.40
2023-03-26T11:48:55.624Z,36.36
2023-03-26T11:51:21.976Z,36.36
2023-03-26T11:53:48.296Z,36.59
2023-03-26T11:56:14.654Z,36.52
2023-03-26T11:58:40.998Z,36.41
2023-03-26T12:01:07.396Z,36.33
2023-03-26T12:03:33.769Z,36.27
2023-03-26T12:06:00.141Z,35.94
2023-03-26T12:08:26.447Z,36.05
2023-03-26T12:10:52.908Z,35.91
2023-03-26T12:13:19.388Z,36.09
2023-03-26T12:15:45.704Z,36.05
2023-03-26T12:18:12.113Z,35.72
2023-03-26T12:20:38.476Z,35.52
2023-03-26T12:23:04.801Z,35.73
2023-03-26T12:25:32.804Z,35.72
2023-03-26T12:27:59.176Z,35.61
2023-03-26T12:30:25.519Z,35.51
2023-03-26T12:32:53.289Z,35.40
2023-03-26T12:35:20.109Z,35.33
2023-03-26T12:37:46.419Z,35.37
2023-03-26T12:40:15.985Z,35.16
2023-03-26T12:44:48.504Z,35.08
2023-03-26T12:45:31.012Z,35.12
2023-03-26T12:48:04.064Z,35.12
2023-03-26T12:50:34.455Z,35.00
2023-03-26T12:53:01.851Z,34.96
2023-03-26T12:55:28.160Z,34.91
2023-03-26T12:57:54.566Z,34.51
2023-03-26T13:00:20.974Z,34.50
2023-03-26T13:02:47.413Z,34.38
2023-03-26T13:05:13.881Z,34.49
2023-03-26T13:07:40.247Z,34.23
2023-03-26T13:10:06.621Z,34.34
2023-03-26T13:12:32.957Z,34.23
2023-03-26T13:15:00.375Z,34.22
2023-03-26T13:17:26.761Z,34.07
2023-03-26T13:19:53.104Z,33.90
2023-03-26T13:22:19.460Z,33.88
2023-03-26T13:24:46.712Z,33.86
2023-03-26T13:27:13.045Z,34.04
2023-03-26T13:29:39.397Z,33.72
2023-03-26T13:32:05.826Z,32.84
2023-03-26T13:34:32.229Z,31.61
2023-03-26T13:36:58.630Z,30.37
2023-03-26T13:39:24.976Z,30.18
2023-03-26T13:41:51.295Z,29.98
2023-03-26T13:44:17.669Z,29.40
2023-03-26T13:46:44.068Z,29.58
2023-03-26T13:49:10.448Z,29.64
2023-03-26T13:51:36.894Z,29.56
2023-03-26T13:54:03.218Z,29.56
2023-03-26T13:56:29.525Z,29.58
2023-03-26T13:58:56.014Z,29.73
2023-03-26T14:01:22.386Z,29.67
2023-03-26T14:03:48.752Z,29.53
2023-03-26T14:06:15.179Z,29.78
2023-03-26T14:08:41.569Z,29.81
2023-03-26T14:11:07.938Z,29.99
2023-03-26T14:13:34.303Z,29.72
2023-03-26T14:16:00.667Z,29.75
2023-03-26T14:18:26.999Z,29.71
2023-03-26T14:20:53.459Z,29.73
2023-03-26T14:23:19.853Z,29.90
2023-03-26T14:25:46.150Z,30.00
2023-03-26T14:28:12.507Z,29.88
2023-03-26T14:30:38.836Z,29.86
2023-03-26T14:33:05.253Z,29.95
2023-03-26T14:35:31.688Z,30.01
2023-03-26T14:37:58.039Z,29.98
2023-03-26T14:40:24.357Z,30.10
2023-03-26T14:42:50.749Z,30.11
2023-03-26T14:45:17.070Z,30.08
2023-03-26T14:47:43.497Z,30.31
2023-03-26T14:50:09.927Z,30.25
2023-03-26T14:52:36.242Z,30.39
2023-03-26T14:55:02.542Z,30.21
2023-03-26T14:57:28.902Z,30.30
2023-03-26T14:59:55.237Z,30.29
2023-03-26T15:02:21.687Z,30.35
2023-03-26T15:04:48.181Z,30.27
2023-03-26T15:07:14.489Z,30.31
2023-03-26T15:09:40.828Z,30.39
2023-03-26T15:12:12.157Z,30.47
2023-03-26T15:14:39.656Z,30.56
2023-03-26T15:17:06.070Z,30.45
2023-03-26T15:19:32.409Z,30.57
2023-03-26T15:21:58.726Z,30.59
2023-03-26T15:24:25.024Z,30.88
2023-03-26T15:26:51.391Z,30.71
2023-03-26T15:29:17.716Z,30.61
2023-03-26T15:31:44.057Z,30.69
2023-03-26T15:34:10.435Z,30.70
2023-03-26T15:36:36.936Z,30.85
2023-03-26T15:39:03.304Z,30.64
2023-03-26T15:41:29.681Z,30.64
2023-03-26T15:44:23.111Z,30.76
2023-03-26T15:46:42.549Z,30.78
2023-03-26T15:49:09.748Z,30.80
2023-03-26T15:51:47.142Z,30.78
2023-03-26T15:54:14.105Z,30.89
2023-03-26T15:56:40.477Z,30.82
2023-03-26T15:59:06.877Z,30.79
2023-03-26T16:01:33.313Z,30.77
2023-03-26T16:03:59.747Z,30.79
2023-03-26T16:06:26.130Z,30.75
2023-03-26T16:08:52.500Z,30.90
2023-03-26T16:11:18.824Z,30.87
2023-03-26T16:13:45.131Z,30.97
2023-03-26T16:16:11.532Z,31.11
2023-03-26T16:18:37.953Z,31.36
2023-03-26T16:21:04.324Z,31.06
2023-03-26T16:23:30.745Z,31.26
2023-03-26T16:25:57.062Z,31.19
2023-03-26T16:28:23.384Z,31.14
2023-03-26T16:30:49.770Z,31.26
2023-03-26T16:33:16.134Z,31.27
2023-03-26T16:35:42.480Z,31.46
2023-03-26T16:38:08.866Z,31.50
2023-03-26T16:40:35.196Z,31.36
2023-03-26T16:43:01.578Z,31.58
2023-03-26T16:45:27.940Z,31.79
2023-03-26T16:47:54.271Z,31.42
2023-03-26T16:50:20.644Z,31.46
2023-03-26T16:52:47.050Z,31.54
2023-03-26T16:55:13.412Z,31.56
2023-03-26T16:57:39.741Z,31.67
2023-03-26T17:00:07.469Z,31.54
2023-03-26T17:02:34.146Z,31.84
2023-03-26T17:05:00.533Z,31.64
2023-03-26T17:07:26.949Z,31.80
2023-03-26T17:09:53.285Z,31.68
2023-03-26T17:12:19.636Z,31.92
2023-03-26T17:14:46.005Z,31.89
2023-03-26T17:17:12.392Z,31.87
2023-03-26T17:19:38.748Z,31.64
2023-03-26T17:22:05.115Z,31.94
2023-03-26T17:24:31.451Z,31.82
2023-03-26T17:27:29.770Z,31.94
2023-03-26T17:29:56.253Z,31.87
2023-03-26T17:32:22.590Z,31.82
2023-03-26T17:34:48.977Z,31.99
2023-03-26T17:37:15.375Z,31.87
2023-03-26T17:39:41.710Z,32.18
2023-03-26T17:42:08.096Z,32.09
2023-03-26T17:44:34.422Z,32.02
2023-03-26T17:47:00.726Z,32.22
2023-03-26T17:49:27.104Z,31.89
2023-03-26T17:51:53.431Z,31.90
2023-03-26T17:54:19.751Z,32.25
2023-03-26T17:56:46.142Z,31.98
2023-03-26T17:59:12.617Z,32.11
2023-03-26T18:01:39.038Z,31.98
2023-03-26T18:04:05.424Z,32.21
2023-03-26T18:06:31.746Z,32.10
2023-03-26T18:08:58.085Z,32.35
2023-03-26T18:11:24.446Z,32.28
2023-03-26T18:13:50.771Z,32.37
2023-03-26T18:16:17.168Z,32.36
2023-03-26T18:18:43.533Z,32.37
2023-03-26T18:21:09.863Z,32.43
2023-03-26T18:23:36.176Z,32.40
2023-03-26T18:26:03.017Z,32.29
2023-03-26T18:28:29.405Z,32.54
2023-03-26T18:30:55.867Z,32.55
2023-03-26T18:33:22.279Z,32.62
2023-03-26T18:35:48.607Z,32.64
2023-03-26T18:38:15.017Z,32.62
2023-03-26T18:40:41.365Z,32.54
2023-03-26T18:43:07.674Z,32.86
2023-03-26T18:45:34.023Z,32.85
2023-03-26T18:48:00.463Z,33.08
2023-03-26T18:50:26.800Z,33.02
2023-03-26T18:52:53.112Z,33.17
2023-03-26T18:55:19.491Z,33.35
2023-03-26T18:57:45.821Z,33.44
2023-03-26T19:00:12.149Z,33.33
2023-03-26T19:02:38.593Z,33.47
2023-03-26T19:05:04.970Z,33.47
2023-03-26T19:07:31.282Z,33.47
2023-03-26T19:09:57.637Z,33.48
2023-03-26T19:12:23.962Z,33.86
2023-03-26T19:14:50.293Z,33.92
2023-03-26T19:17:16.677Z,33.78
2023-03-26T19:19:42.994Z,33.94
2023-03-26T19:22:09.326Z,33.87
2023-03-26T19:24:35.708Z,34.22
2023-03-26T19:27:02.020Z,34.03
2023-03-26T19:29:28.423Z,34.22
2023-03-26T19:31:54.802Z,34.11
2023-03-26T19:34:21.138Z,34.19
2023-03-26T19:36:47.480Z,34.25
2023-03-26T19:39:17.352Z,34.21
2023-03-26T19:41:47.972Z,34.46
2023-03-26T19:44:14.302Z,34.41
2023-03-26T19:46:53.656Z,34.45
2023-03-26T19:49:28.438Z,34.79
2023-03-26T19:51:54.892Z,34.79
2023-03-26T19:54:21.280Z,34.56
2023-03-26T19:56:47.714Z,34.90
2023-03-26T19:59:14.046Z,34.71
2023-03-26T20:01:40.417Z,34.68
2023-03-26T20:04:06.934Z,34.85
2023-03-26T20:06:43.249Z,35.03
2023-03-26T20:09:10.414Z,34.78
2023-03-26T20:11:36.732Z,35.05
2023-03-26T20:14:03.062Z,35.02
2023-03-26T20:16:29.441Z,34.99
2023-03-26T20:18:55.781Z,35.26
2023-03-26T20:21:22.122Z,35.15
2023-03-26T20:23:48.482Z,35.08
2023-03-26T20:26:14.867Z,35.21
2023-03-26T20:28:48.382Z,35.45
2023-03-26T20:31:15.160Z,35.45
2023-03-26T20:33:41.493Z,35.40
2023-03-26T20:36:07.852Z,35.55
2023-03-26T20:38:39.352Z,35.59
2023-03-26T20:41:06.392Z,35.51
2023-03-26T20:43:32.707Z,35.64
2023-03-26T20:45:59.079Z,35.63
2023-03-26T20:48:25.401Z,35.80
2023-03-26T20:50:51.740Z,35.74
2023-03-26T20:53:18.128Z,35.98
2023-03-26T20:55:44.454Z,35.78
2023-03-26T20:58:10.780Z,35.90
2023-03-26T21:00:37.303Z,36.03
2023-03-26T21:03:03.809Z,35.87
2023-03-26T21:05:30.174Z,36.00
2023-03-26T21:07:56.681Z,36.08
2023-03-26T21:10:22.993Z,36.20
2023-03-26T21:12:49.390Z,36.16
2023-03-26T21:15:23.030Z,36.43
2023-03-26T21:17:50.171Z,36.37
2023-03-26T21:20:16.591Z,36.36
2023-03-26T21:22:42.932Z,36.68
2023-03-26T21:25:09.255Z,36.41
2023-03-26T21:27:35.633Z,36.48
2023-03-26T21:30:01.957Z,36.44
2023-03-26T21:32:28.319Z,36.48
2023-03-26T21:37:23.915Z,36.61
2023-03-26T21:39:50.239Z,36.50
2023-03-26T21:42:16.601Z,36.83
2023-03-26T21:44:42.946Z,36.59
2023-03-26T21:47:09.908Z,36.70
2023-03-26T21:49:36.426Z,36.65
2023-03-26T21:52:02.726Z,36.83
2023-03-26T21:54:29.044Z,36.85
2023-03-26T21:56:55.443Z,36.93
2023-03-26T21:59:21.781Z,36.94
2023-03-26T22:01:48.156Z,36.67
2023-03-26T22:04:14.548Z,36.76
2023-03-26T22:06:40.867Z,36.81
2023-03-26T22:09:07.219Z,37.09
2023-03-26T22:11:33.573Z,36.94
2023-03-26T22:13:59.893Z,36.94
2023-03-26T22:16:26.225Z,36.98
2023-03-26T22:18:52.620Z,37.06
2023-03-26T22:21:18.941Z,37.18
2023-03-26T22:23:45.255Z,37.10
2023-03-26T22:26:11.598Z,37.19
2023-03-26T22:28:37.904Z,37.27
2023-03-26T22:31:04.318Z,37.18
2023-03-26T22:33:30.712Z,37.42
2023-03-26T22:35:57.088Z,37.23
2023-03-26T22:38:23.458Z,37.25
2023-03-26T22:40:49.812Z,37.33
2023-03-26T22:43:16.145Z,37.46
2023-03-26T22:45:42.476Z,37.47
2023-03-26T22:48:09.028Z,37.41
2023-03-26T22:50:35.377Z,37.57
2023-03-26T22:53:01.753Z,37.54
2023-03-26T22:55:29.735Z,37.47
2023-03-26T22:57:56.411Z,37.66
2023-03-26T23:00:22.802Z,37.60
2023-03-26T23:02:49.227Z,37.56
2023-03-26T23:05:15.551Z,37.58
2023-03-26T23:07:41.919Z,37.76
2023-03-26T23:10:08.279Z,37.99
2023-03-26T23:12:34.590Z,37.88
2023-03-26T23:15:00.973Z,37.77
2023-03-26T23:17:27.385Z,37.89
2023-03-26T23:19:53.714Z,37.99
2023-03-26T23:22:20.064Z,37.88
2023-03-26T23:24:46.428Z,37.84
2023-03-26T23:27:12.831Z,38.22
2023-03-26T23:29:39.155Z,37.83
2023-03-26T23:32:24.166Z,38.05
2023-03-26T23:34:52.267Z,38.13
2023-03-26T23:37:19.168Z,38.12
2023-03-26T23:39:45.497Z,38.04
2023-03-26T23:42:11.886Z,38.15
2023-03-26T23:44:38.241Z,37.96
2023-03-26T23:47:04.569Z,38.02
2023-03-26T23:49:30.920Z,38.42
2023-03-26T23:51:57.302Z,38.20
2023-03-26T23:54:23.611Z,38.29
2023-03-26T23:56:50.024Z,38.53
2023-03-26T23:59:16.634Z,38.12
